METAR AND TAF INFORMATION
METAR FOR KTUS
ADDS - METARS form results

(2224 UTC 24 April 2018)
Data provider http://aviationweather.gov/adds/metars/
 
METAR text: KTUS 242153Z 29007G18KT 10SM CLR 33/M08 A2995 RMK AO2 SLP096 T03331078
Conditions at: KTUS (TUCSON , AZ, US) observed 2153 UTC 24 April 2018
Temperature: 33.3°C (92°F)
Dewpoint: -7.8°C (18°F) [RH = 7%]
Pressure (altimeter): 29.95 inches Hg (1014.3 mb)
[Sea-level pressure: 1009.6 mb]
Winds: from the WNW (290 degrees) at 8 MPH (7 knots; 3.6 m/s)
gusting to 21 MPH (18 knots; 9.4 m/s)
Visibility: 10 or more miles (16+ km)
Ceiling: at least 12,000 feet AGL
Clouds: sky clear below 12,000 feet AGL
Weather: no significant weather observed at this time

Forecast for: KTUS (TUCSON , AZ, US)
Text: KTUS 241739Z 2418/2518 20005KT P6SM SCT250
Forecast period: 1800 to 2000 UTC 24 April 2018
Forecast type: FROM: standard forecast or significant change
Winds: from the SSW (200 degrees) at 6 MPH (5 knots; 2.6 m/s)
Visibility: 6 or more miles (10+ km)
Clouds: scattered clouds at 25000 feet AGL
Weather: no significant weather forecast for this period
Forecast for: KTUS (TUCSON , AZ, US)
Text: KTUS 241739Z 2418/2518 20005KT P6SM SCT250
Forecast period: 1800 to 2000 UTC 24 April 2018
Forecast type: FROM: standard forecast or significant change
Winds: from the SSW (200 degrees) at 6 MPH (5 knots; 2.6 m/s)
Visibility: 6 or more miles (10+ km)
Clouds: scattered clouds at 25000 feet AGL
Weather: no significant weather forecast for this period
Forecast for: KTUS (TUCSON , AZ, US)
Text: KTUS 241739Z 2418/2518 20005KT P6SM SCT250
Forecast period: 2000 UTC 24 April 2018 to 0400 UTC 25 April 2018
Forecast type: FROM: standard forecast or significant change
Winds: from the W (270 degrees) at 10 MPH (9 knots; 4.7 m/s)
Visibility: 6 or more miles (10+ km)
Ceiling: 25000 feet AGL
Clouds: broken clouds at 25000 feet AGL
Weather: no significant weather forecast for this period
Forecast for: KTUS (TUCSON , AZ, US)
Text: KTUS 241739Z 2418/2518 20005KT P6SM SCT250
Forecast period: 2000 UTC 24 April 2018 to 0400 UTC 25 April 2018
Forecast type: FROM: standard forecast or significant change
Winds: from the W (270 degrees) at 10 MPH (9 knots; 4.7 m/s)
Visibility: 6 or more miles (10+ km)
Ceiling: 25000 feet AGL
Clouds: broken clouds at 25000 feet AGL
Weather: no significant weather forecast for this period
Forecast for: KTUS (TUCSON , AZ, US)
Text: KTUS 241739Z 2418/2518 20005KT P6SM SCT250
Forecast period: 0400 to 0800 UTC 25 April 2018
Forecast type: FROM: standard forecast or significant change
Winds: from the SW (230 degrees) at 6 MPH (5 knots; 2.6 m/s)
Visibility: 6 or more miles (10+ km)
Ceiling: 25000 feet AGL
Clouds: broken clouds at 25000 feet AGL
Weather: no significant weather forecast for this period
Forecast for: KTUS (TUCSON , AZ, US)
Text: KTUS 241739Z 2418/2518 20005KT P6SM SCT250
Forecast period: 0400 to 0800 UTC 25 April 2018
Forecast type: FROM: standard forecast or significant change
Winds: from the SW (230 degrees) at 6 MPH (5 knots; 2.6 m/s)
Visibility: 6 or more miles (10+ km)
Ceiling: 25000 feet AGL
Clouds: broken clouds at 25000 feet AGL
Weather: no significant weather forecast for this period
Forecast for: KTUS (TUCSON , AZ, US)
Text: KTUS 241739Z 2418/2518 20005KT P6SM SCT250
Forecast period: 0800 to 1800 UTC 25 April 2018
Forecast type: FROM: standard forecast or significant change
Winds: from the SSE (150 degrees) at 7 MPH (6 knots; 3.1 m/s)
Visibility: 6 or more miles (10+ km)
Ceiling: 25000 feet AGL
Clouds: broken clouds at 25000 feet AGL
Weather: no significant weather forecast for this period
Forecast for: KTUS (TUCSON , AZ, US)
Text: KTUS 241739Z 2418/2518 20005KT P6SM SCT250
Forecast period: 0800 to 1800 UTC 25 April 2018
Forecast type: FROM: standard forecast or significant change
Winds: from the SSE (150 degrees) at 7 MPH (6 knots; 3.1 m/s)
Visibility: 6 or more miles (10+ km)
Ceiling: 25000 feet AGL
Clouds: broken clouds at 25000 feet AGL
Weather: no significant weather forecast for this period

 AIRPORT MAP

 RUNWAY INFORMATION
Runway 03 Runway length 7000 ft Runway width 150 ft
Runway elevation 2564 ft Runway displaced threshold 841 ft Runway heading 45
Runway 21 Runway length 7000 ft Runway width 150 ft
Runway elevation 2569 ft Runway displaced threshold 0 ft Runway heading 225
Runway 11L Runway length 10996 ft Runway width 150 ft
Runway elevation 2578 ft Runway displaced threshold 0 ft Runway heading 135
Runway 29R Runway length 10996 ft Runway width 150 ft
Runway elevation 2643 ft Runway displaced threshold 0 ft Runway heading 315
Runway 11R Runway length 8408 ft Runway width 75 ft
Runway elevation 2585 ft Runway displaced threshold 1410 ft Runway heading 135
Runway 29L Runway length 8408 ft Runway width 75 ft
Runway elevation 2629 ft Runway displaced threshold 0 ft Runway heading 315

 AIRPORT FREQUENCIES
Type A/D Name APP/DEP Frequency 119.4 MHZ
Type ATIS Name ATIS Frequency 123.8 MHZ
Type CLD Name CLNC DEL Frequency 126.65 MHZ
Type GND Name GND Frequency 124.4 MHZ
Type POST Name ANG COMD P Frequency 39.22 MHZ
Type RDO Name PRESCOTT R Frequency 122.2 MHZ
Type TWR Name TWR Frequency 118.3 MHZ
Type UNIC Name UNICOM Frequency 122.95 MHZ

 AIRPORT NEAR NAVIGATION AIDS



Powered by Virtual Airlines Manager [v2.6.2]